sensor_id;sensor_type;location;lat;lon;timestamp;P1;durP1;ratioP1;P2;durP2;ratioP2
51901;SDS011;37929;53.218;6.548;2022-11-27T00:02:01;9.15;;;4.47;;
51901;SDS011;37929;53.218;6.548;2022-11-27T00:04:26;13.88;;;4.72;;
51901;SDS011;37929;53.218;6.548;2022-11-27T00:06:52;9.88;;;5.38;;
51901;SDS011;37929;53.218;6.548;2022-11-27T00:09:21;10.88;;;4.22;;
51901;SDS011;37929;53.218;6.548;2022-11-27T00:11:46;9.52;;;4.70;;
51901;SDS011;37929;53.218;6.548;2022-11-27T00:14:13;9.75;;;3.88;;
51901;SDS011;37929;53.218;6.548;2022-11-27T00:16:40;17.65;;;4.90;;
51901;SDS011;37929;53.218;6.548;2022-11-27T00:19:06;9.95;;;4.43;;
51901;SDS011;37929;53.218;6.548;2022-11-27T00:21:34;9.38;;;4.70;;
51901;SDS011;37929;53.218;6.548;2022-11-27T00:24:01;11.23;;;4.85;;
51901;SDS011;37929;53.218;6.548;2022-11-27T00:26:29;10.35;;;4.22;;
51901;SDS011;37929;53.218;6.548;2022-11-27T00:28:55;10.70;;;4.43;;
51901;SDS011;37929;53.218;6.548;2022-11-27T00:31:22;9.40;;;4.28;;
51901;SDS011;37929;53.218;6.548;2022-11-27T00:33:53;10.52;;;3.97;;
51901;SDS011;37929;53.218;6.548;2022-11-27T00:36:27;8.38;;;4.57;;
51901;SDS011;37929;53.218;6.548;2022-11-27T00:38:54;9.82;;;4.07;;
51901;SDS011;37929;53.218;6.548;2022-11-27T00:41:21;10.60;;;3.95;;
51901;SDS011;37929;53.218;6.548;2022-11-27T00:43:49;11.30;;;3.80;;
51901;SDS011;37929;53.218;6.548;2022-11-27T00:46:17;10.60;;;4.18;;
51901;SDS011;37929;53.218;6.548;2022-11-27T00:48:44;11.90;;;3.92;;
51901;SDS011;37929;53.218;6.548;2022-11-27T00:51:12;9.80;;;4.43;;
51901;SDS011;37929;53.218;6.548;2022-11-27T00:53:40;11.77;;;3.95;;
51901;SDS011;37929;53.218;6.548;2022-11-27T00:56:06;6.80;;;3.50;;
51901;SDS011;37929;53.218;6.548;2022-11-27T00:58:32;8.02;;;3.88;;
51901;SDS011;37929;53.218;6.548;2022-11-27T01:00:59;12.65;;;4.03;;
51901;SDS011;37929;53.218;6.548;2022-11-27T01:03:27;8.52;;;4.15;;
51901;SDS011;37929;53.218;6.548;2022-11-27T01:05:54;12.05;;;4.45;;
51901;SDS011;37929;53.218;6.548;2022-11-27T01:08:20;8.40;;;3.70;;
51901;SDS011;37929;53.218;6.548;2022-11-27T01:10:53;7.95;;;4.10;;
51901;SDS011;37929;53.218;6.548;2022-11-27T01:13:29;7.05;;;4.00;;
51901;SDS011;37929;53.218;6.548;2022-11-27T01:16:04;10.20;;;3.83;;
51901;SDS011;37929;53.218;6.548;2022-11-27T01:18:32;7.97;;;3.72;;
51901;SDS011;37929;53.218;6.548;2022-11-27T01:20:58;9.00;;;4.38;;
51901;SDS011;37929;53.218;6.548;2022-11-27T01:23:24;10.27;;;4.50;;
51901;SDS011;37929;53.218;6.548;2022-11-27T01:25:50;16.55;;;6.15;;
51901;SDS011;37929;53.218;6.548;2022-11-27T01:28:19;7.88;;;3.90;;
51901;SDS011;37929;53.218;6.548;2022-11-27T01:30:49;8.15;;;4.53;;
51901;SDS011;37929;53.218;6.548;2022-11-27T01:33:15;13.70;;;4.43;;
51901;SDS011;37929;53.218;6.548;2022-11-27T01:35:41;8.35;;;4.07;;
51901;SDS011;37929;53.218;6.548;2022-11-27T01:38:07;12.68;;;4.15;;
51901;SDS011;37929;53.218;6.548;2022-11-27T01:40:33;10.23;;;4.03;;
51901;SDS011;37929;53.218;6.548;2022-11-27T01:42:59;6.38;;;3.85;;
51901;SDS011;37929;53.218;6.548;2022-11-27T01:45:24;13.02;;;4.15;;
51901;SDS011;37929;53.218;6.548;2022-11-27T01:47:54;6.88;;;3.90;;
51901;SDS011;37929;53.218;6.548;2022-11-27T01:50:27;9.25;;;3.67;;
51901;SDS011;37929;53.218;6.548;2022-11-27T01:53:02;8.27;;;3.78;;
51901;SDS011;37929;53.218;6.548;2022-11-27T01:55:32;8.63;;;5.20;;
51901;SDS011;37929;53.218;6.548;2022-11-27T01:58:07;14.63;;;4.68;;
51901;SDS011;37929;53.218;6.548;2022-11-27T02:00:36;8.68;;;4.25;;
51901;SDS011;37929;53.218;6.548;2022-11-27T02:03:02;10.00;;;4.25;;
51901;SDS011;37929;53.218;6.548;2022-11-27T02:05:28;9.88;;;4.30;;
51901;SDS011;37929;53.218;6.548;2022-11-27T02:07:58;8.02;;;4.00;;
51901;SDS011;37929;53.218;6.548;2022-11-27T02:11:10;8.65;;;4.40;;
51901;SDS011;37929;53.218;6.548;2022-11-27T02:13:44;10.90;;;4.30;;
51901;SDS011;37929;53.218;6.548;2022-11-27T02:16:27;10.00;;;4.68;;
51901;SDS011;37929;53.218;6.548;2022-11-27T02:22:07;10.07;;;4.45;;
51901;SDS011;37929;53.218;6.548;2022-11-27T02:27:54;9.00;;;4.43;;
51901;SDS011;37929;53.218;6.548;2022-11-27T02:30:42;10.73;;;4.47;;
51901;SDS011;37929;53.218;6.548;2022-11-27T02:33:13;9.38;;;5.32;;
51901;SDS011;37929;53.218;6.548;2022-11-27T02:35:53;11.95;;;4.15;;
51901;SDS011;37929;53.218;6.548;2022-11-27T02:38:31;10.52;;;3.95;;
51901;SDS011;37929;53.218;6.548;2022-11-27T02:43:53;8.38;;;3.63;;
51901;SDS011;37929;53.218;6.548;2022-11-27T02:46:19;10.43;;;4.25;;
51901;SDS011;37929;53.218;6.548;2022-11-27T02:48:47;11.63;;;4.15;;
51901;SDS011;37929;53.218;6.548;2022-11-27T02:51:16;6.95;;;3.60;;
51901;SDS011;37929;53.218;6.548;2022-11-27T02:53:56;11.30;;;4.40;;
51901;SDS011;37929;53.218;6.548;2022-11-27T02:56:25;10.32;;;4.10;;
51901;SDS011;37929;53.218;6.548;2022-11-27T02:58:54;9.75;;;3.95;;
51901;SDS011;37929;53.218;6.548;2022-11-27T03:01:23;10.63;;;3.95;;
51901;SDS011;37929;53.218;6.548;2022-11-27T03:03:54;8.23;;;4.03;;
51901;SDS011;37929;53.218;6.548;2022-11-27T03:06:23;9.50;;;4.15;;
51901;SDS011;37929;53.218;6.548;2022-11-27T03:08:56;7.68;;;3.88;;
51901;SDS011;37929;53.218;6.548;2022-11-27T03:11:29;12.48;;;3.65;;
51901;SDS011;37929;53.218;6.548;2022-11-27T03:13:55;8.68;;;3.53;;
51901;SDS011;37929;53.218;6.548;2022-11-27T03:19:23;8.07;;;4.13;;
51901;SDS011;37929;53.218;6.548;2022-11-27T03:21:55;9.32;;;3.75;;
51901;SDS011;37929;53.218;6.548;2022-11-27T03:24:26;10.15;;;3.88;;
51901;SDS011;37929;53.218;6.548;2022-11-27T03:26:54;9.05;;;3.60;;
51901;SDS011;37929;53.218;6.548;2022-11-27T03:29:23;12.32;;;4.60;;
51901;SDS011;37929;53.218;6.548;2022-11-27T03:31:50;7.25;;;3.63;;
51901;SDS011;37929;53.218;6.548;2022-11-27T03:34:16;11.55;;;4.03;;
51901;SDS011;37929;53.218;6.548;2022-11-27T03:36:43;9.88;;;4.10;;
51901;SDS011;37929;53.218;6.548;2022-11-27T03:39:09;9.75;;;3.80;;
51901;SDS011;37929;53.218;6.548;2022-11-27T03:44:25;5.93;;;3.83;;
51901;SDS011;37929;53.218;6.548;2022-11-27T03:47:23;8.40;;;3.60;;
51901;SDS011;37929;53.218;6.548;2022-11-27T03:58:01;12.68;;;4.53;;
51901;SDS011;37929;53.218;6.548;2022-11-27T04:00:34;7.68;;;3.47;;
51901;SDS011;37929;53.218;6.548;2022-11-27T04:03:03;9.23;;;3.95;;
51901;SDS011;37929;53.218;6.548;2022-11-27T04:05:29;6.63;;;4.05;;
51901;SDS011;37929;53.218;6.548;2022-11-27T04:07:55;7.03;;;4.07;;
51901;SDS011;37929;53.218;6.548;2022-11-27T04:10:21;7.10;;;3.88;;
51901;SDS011;37929;53.218;6.548;2022-11-27T04:12:46;10.75;;;4.13;;
51901;SDS011;37929;53.218;6.548;2022-11-27T04:15:12;6.85;;;3.55;;
51901;SDS011;37929;53.218;6.548;2022-11-27T04:17:38;6.68;;;3.53;;
51901;SDS011;37929;53.218;6.548;2022-11-27T04:20:04;9.13;;;3.30;;
51901;SDS011;37929;53.218;6.548;2022-11-27T04:22:31;6.75;;;3.13;;
51901;SDS011;37929;53.218;6.548;2022-11-27T04:24:56;10.18;;;3.90;;
51901;SDS011;37929;53.218;6.548;2022-11-27T04:27:22;8.73;;;3.70;;
51901;SDS011;37929;53.218;6.548;2022-11-27T04:29:48;9.15;;;3.58;;
51901;SDS011;37929;53.218;6.548;2022-11-27T04:32:14;8.15;;;3.88;;
51901;SDS011;37929;53.218;6.548;2022-11-27T04:34:39;7.75;;;3.55;;
51901;SDS011;37929;53.218;6.548;2022-11-27T04:37:05;7.43;;;3.35;;
51901;SDS011;37929;53.218;6.548;2022-11-27T04:39:31;8.40;;;3.22;;
51901;SDS011;37929;53.218;6.548;2022-11-27T04:41:56;8.10;;;3.22;;
51901;SDS011;37929;53.218;6.548;2022-11-27T04:44:22;7.07;;;3.15;;
51901;SDS011;37929;53.218;6.548;2022-11-27T04:46:48;8.07;;;3.35;;
51901;SDS011;37929;53.218;6.548;2022-11-27T04:49:14;9.43;;;3.42;;
51901;SDS011;37929;53.218;6.548;2022-11-27T04:51:40;8.70;;;3.83;;
51901;SDS011;37929;53.218;6.548;2022-11-27T04:54:06;9.30;;;3.38;;
51901;SDS011;37929;53.218;6.548;2022-11-27T04:56:31;7.22;;;3.58;;
51901;SDS011;37929;53.218;6.548;2022-11-27T04:58:57;11.63;;;3.70;;
51901;SDS011;37929;53.218;6.548;2022-11-27T05:01:23;8.30;;;3.47;;
51901;SDS011;37929;53.218;6.548;2022-11-27T05:03:48;5.95;;;3.53;;
51901;SDS011;37929;53.218;6.548;2022-11-27T05:06:14;7.80;;;3.45;;
51901;SDS011;37929;53.218;6.548;2022-11-27T05:08:40;7.70;;;3.22;;
51901;SDS011;37929;53.218;6.548;2022-11-27T05:11:07;9.98;;;3.30;;
51901;SDS011;37929;53.218;6.548;2022-11-27T05:13:37;9.52;;;3.53;;
51901;SDS011;37929;53.218;6.548;2022-11-27T05:16:03;9.23;;;3.22;;
51901;SDS011;37929;53.218;6.548;2022-11-27T05:18:29;11.60;;;3.05;;
51901;SDS011;37929;53.218;6.548;2022-11-27T05:20:55;9.20;;;2.80;;
51901;SDS011;37929;53.218;6.548;2022-11-27T05:23:23;7.22;;;3.28;;
51901;SDS011;37929;53.218;6.548;2022-11-27T05:25:49;9.88;;;4.22;;
51901;SDS011;37929;53.218;6.548;2022-11-27T05:28:15;6.75;;;3.05;;
51901;SDS011;37929;53.218;6.548;2022-11-27T05:30:41;8.80;;;3.30;;
51901;SDS011;37929;53.218;6.548;2022-11-27T05:33:06;8.15;;;3.42;;
51901;SDS011;37929;53.218;6.548;2022-11-27T05:35:32;9.88;;;2.95;;
51901;SDS011;37929;53.218;6.548;2022-11-27T05:37:58;8.07;;;3.17;;
51901;SDS011;37929;53.218;6.548;2022-11-27T05:40:24;6.47;;;2.70;;
51901;SDS011;37929;53.218;6.548;2022-11-27T05:42:49;6.65;;;3.15;;
51901;SDS011;37929;53.218;6.548;2022-11-27T05:45:15;6.43;;;2.47;;
51901;SDS011;37929;53.218;6.548;2022-11-27T05:47:41;8.75;;;3.42;;
51901;SDS011;37929;53.218;6.548;2022-11-27T05:50:07;5.15;;;3.05;;
51901;SDS011;37929;53.218;6.548;2022-11-27T05:52:33;5.20;;;2.70;;
51901;SDS011;37929;53.218;6.548;2022-11-27T05:54:58;7.95;;;3.28;;
51901;SDS011;37929;53.218;6.548;2022-11-27T05:57:24;4.60;;;2.67;;
51901;SDS011;37929;53.218;6.548;2022-11-27T05:59:50;10.02;;;2.58;;
51901;SDS011;37929;53.218;6.548;2022-11-27T06:02:16;5.78;;;2.65;;
51901;SDS011;37929;53.218;6.548;2022-11-27T06:04:42;6.10;;;2.70;;
51901;SDS011;37929;53.218;6.548;2022-11-27T06:07:08;6.75;;;2.78;;
51901;SDS011;37929;53.218;6.548;2022-11-27T06:09:36;4.65;;;2.42;;
51901;SDS011;37929;53.218;6.548;2022-11-27T06:12:02;5.13;;;2.58;;
51901;SDS011;37929;53.218;6.548;2022-11-27T06:14:28;11.27;;;2.53;;
51901;SDS011;37929;53.218;6.548;2022-11-27T06:16:55;5.93;;;3.10;;
51901;SDS011;37929;53.218;6.548;2022-11-27T06:19:22;6.05;;;3.25;;
51901;SDS011;37929;53.218;6.548;2022-11-27T06:21:47;6.45;;;2.65;;
51901;SDS011;37929;53.218;6.548;2022-11-27T06:24:13;11.77;;;3.72;;
51901;SDS011;37929;53.218;6.548;2022-11-27T06:26:39;6.65;;;2.90;;
51901;SDS011;37929;53.218;6.548;2022-11-27T06:29:05;7.90;;;2.97;;
51901;SDS011;37929;53.218;6.548;2022-11-27T06:31:31;5.80;;;2.58;;
51901;SDS011;37929;53.218;6.548;2022-11-27T06:33:57;4.00;;;2.33;;
51901;SDS011;37929;53.218;6.548;2022-11-27T06:36:25;5.40;;;3.05;;
51901;SDS011;37929;53.218;6.548;2022-11-27T06:38:56;6.35;;;2.70;;
51901;SDS011;37929;53.218;6.548;2022-11-27T06:41:22;5.47;;;2.50;;
51901;SDS011;37929;53.218;6.548;2022-11-27T06:43:49;4.82;;;2.83;;
51901;SDS011;37929;53.218;6.548;2022-11-27T06:46:16;10.30;;;2.83;;
51901;SDS011;37929;53.218;6.548;2022-11-27T06:48:43;5.22;;;2.28;;
51901;SDS011;37929;53.218;6.548;2022-11-27T06:51:11;5.90;;;2.40;;
51901;SDS011;37929;53.218;6.548;2022-11-27T06:53:39;6.47;;;2.97;;
51901;SDS011;37929;53.218;6.548;2022-11-27T06:56:06;5.10;;;2.83;;
51901;SDS011;37929;53.218;6.548;2022-11-27T06:58:34;6.85;;;2.47;;
51901;SDS011;37929;53.218;6.548;2022-11-27T07:01:02;4.78;;;2.50;;
51901;SDS011;37929;53.218;6.548;2022-11-27T07:03:30;5.53;;;2.58;;
51901;SDS011;37929;53.218;6.548;2022-11-27T07:05:59;8.02;;;2.67;;
51901;SDS011;37929;53.218;6.548;2022-11-27T07:08:26;4.75;;;2.58;;
51901;SDS011;37929;53.218;6.548;2022-11-27T07:10:52;7.78;;;2.88;;
51901;SDS011;37929;53.218;6.548;2022-11-27T07:13:18;6.15;;;2.95;;
51901;SDS011;37929;53.218;6.548;2022-11-27T07:15:44;4.90;;;2.53;;
51901;SDS011;37929;53.218;6.548;2022-11-27T07:18:09;7.03;;;2.95;;
51901;SDS011;37929;53.218;6.548;2022-11-27T07:20:35;6.70;;;3.03;;
51901;SDS011;37929;53.218;6.548;2022-11-27T07:23:01;7.43;;;3.17;;
51901;SDS011;37929;53.218;6.548;2022-11-27T07:25:27;5.63;;;2.90;;
51901;SDS011;37929;53.218;6.548;2022-11-27T07:27:54;5.32;;;2.78;;
51901;SDS011;37929;53.218;6.548;2022-11-27T07:30:20;5.55;;;2.65;;
51901;SDS011;37929;53.218;6.548;2022-11-27T07:32:45;7.57;;;2.88;;
51901;SDS011;37929;53.218;6.548;2022-11-27T07:35:11;6.32;;;3.25;;
51901;SDS011;37929;53.218;6.548;2022-11-27T07:37:37;8.30;;;3.15;;
51901;SDS011;37929;53.218;6.548;2022-11-27T07:40:03;8.52;;;3.08;;
51901;SDS011;37929;53.218;6.548;2022-11-27T07:42:29;6.35;;;3.00;;
51901;SDS011;37929;53.218;6.548;2022-11-27T07:44:55;8.15;;;2.75;;
51901;SDS011;37929;53.218;6.548;2022-11-27T07:47:21;4.05;;;2.50;;
51901;SDS011;37929;53.218;6.548;2022-11-27T07:49:47;5.82;;;2.85;;
51901;SDS011;37929;53.218;6.548;2022-11-27T07:52:12;6.47;;;3.10;;
51901;SDS011;37929;53.218;6.548;2022-11-27T07:54:38;9.32;;;3.35;;
51901;SDS011;37929;53.218;6.548;2022-11-27T07:57:04;6.90;;;3.35;;
51901;SDS011;37929;53.218;6.548;2022-11-27T07:59:29;7.38;;;2.97;;
51901;SDS011;37929;53.218;6.548;2022-11-27T08:01:59;4.95;;;2.97;;
51901;SDS011;37929;53.218;6.548;2022-11-27T08:04:25;4.80;;;3.03;;
51901;SDS011;37929;53.218;6.548;2022-11-27T08:06:51;5.40;;;2.90;;
51901;SDS011;37929;53.218;6.548;2022-11-27T08:09:17;6.07;;;3.08;;
51901;SDS011;37929;53.218;6.548;2022-11-27T08:11:43;7.50;;;3.42;;
51901;SDS011;37929;53.218;6.548;2022-11-27T08:14:08;5.45;;;2.83;;
51901;SDS011;37929;53.218;6.548;2022-11-27T08:16:36;6.03;;;3.00;;
51901;SDS011;37929;53.218;6.548;2022-11-27T08:19:02;6.55;;;3.42;;
51901;SDS011;37929;53.218;6.548;2022-11-27T08:21:28;5.70;;;2.90;;
51901;SDS011;37929;53.218;6.548;2022-11-27T08:23:54;5.68;;;3.45;;
51901;SDS011;37929;53.218;6.548;2022-11-27T08:26:21;9.20;;;3.58;;
51901;SDS011;37929;53.218;6.548;2022-11-27T08:28:47;7.43;;;3.13;;
51901;SDS011;37929;53.218;6.548;2022-11-27T08:31:15;5.43;;;2.97;;
51901;SDS011;37929;53.218;6.548;2022-11-27T08:33:42;6.03;;;2.65;;
51901;SDS011;37929;53.218;6.548;2022-11-27T08:36:08;5.22;;;2.90;;
51901;SDS011;37929;53.218;6.548;2022-11-27T08:38:33;6.28;;;2.80;;
51901;SDS011;37929;53.218;6.548;2022-11-27T08:41:00;6.72;;;3.03;;
51901;SDS011;37929;53.218;6.548;2022-11-27T08:43:28;7.75;;;3.20;;
51901;SDS011;37929;53.218;6.548;2022-11-27T08:45:54;4.10;;;2.92;;
51901;SDS011;37929;53.218;6.548;2022-11-27T08:48:20;12.40;;;3.75;;
51901;SDS011;37929;53.218;6.548;2022-11-27T08:50:47;7.63;;;3.55;;
51901;SDS011;37929;53.218;6.548;2022-11-27T08:53:13;6.55;;;2.80;;
51901;SDS011;37929;53.218;6.548;2022-11-27T08:55:39;8.00;;;3.47;;
51901;SDS011;37929;53.218;6.548;2022-11-27T08:58:05;9.38;;;3.13;;
51901;SDS011;37929;53.218;6.548;2022-11-27T09:00:31;9.48;;;3.85;;
51901;SDS011;37929;53.218;6.548;2022-11-27T09:02:59;7.78;;;3.22;;
51901;SDS011;37929;53.218;6.548;2022-11-27T09:05:25;6.93;;;3.53;;
51901;SDS011;37929;53.218;6.548;2022-11-27T09:07:52;8.90;;;3.80;;
51901;SDS011;37929;53.218;6.548;2022-11-27T09:10:19;7.78;;;3.63;;
51901;SDS011;37929;53.218;6.548;2022-11-27T09:12:47;8.05;;;3.40;;
51901;SDS011;37929;53.218;6.548;2022-11-27T09:15:13;9.05;;;3.50;;
51901;SDS011;37929;53.218;6.548;2022-11-27T09:17:39;8.77;;;3.25;;
51901;SDS011;37929;53.218;6.548;2022-11-27T09:20:05;8.23;;;3.75;;
51901;SDS011;37929;53.218;6.548;2022-11-27T09:22:32;7.30;;;3.55;;
51901;SDS011;37929;53.218;6.548;2022-11-27T09:24:59;9.30;;;4.00;;
51901;SDS011;37929;53.218;6.548;2022-11-27T09:27:24;12.02;;;3.65;;
51901;SDS011;37929;53.218;6.548;2022-11-27T09:29:51;9.32;;;3.78;;
51901;SDS011;37929;53.218;6.548;2022-11-27T09:32:17;5.88;;;3.92;;
51901;SDS011;37929;53.218;6.548;2022-11-27T09:34:42;13.95;;;4.55;;
51901;SDS011;37929;53.218;6.548;2022-11-27T09:37:08;8.32;;;4.00;;
51901;SDS011;37929;53.218;6.548;2022-11-27T09:39:35;10.27;;;5.10;;
51901;SDS011;37929;53.218;6.548;2022-11-27T09:42:02;5.95;;;3.58;;
51901;SDS011;37929;53.218;6.548;2022-11-27T09:52:43;6.85;;;3.42;;
51901;SDS011;37929;53.218;6.548;2022-11-27T09:55:20;8.10;;;4.00;;
51901;SDS011;37929;53.218;6.548;2022-11-27T09:57:54;8.85;;;4.20;;
51901;SDS011;37929;53.218;6.548;2022-11-27T10:00:25;7.72;;;3.67;;
51901;SDS011;37929;53.218;6.548;2022-11-27T10:02:54;9.98;;;4.60;;
51901;SDS011;37929;53.218;6.548;2022-11-27T10:05:24;12.15;;;4.85;;
51901;SDS011;37929;53.218;6.548;2022-11-27T10:10:38;8.70;;;4.07;;
51901;SDS011;37929;53.218;6.548;2022-11-27T10:15:43;12.30;;;4.65;;
51901;SDS011;37929;53.218;6.548;2022-11-27T10:24:17;7.55;;;3.65;;
51901;SDS011;37929;53.218;6.548;2022-11-27T10:26:49;9.23;;;4.20;;
51901;SDS011;37929;53.218;6.548;2022-11-27T10:29:29;8.30;;;4.55;;
51901;SDS011;37929;53.218;6.548;2022-11-27T10:32:13;9.73;;;4.93;;
51901;SDS011;37929;53.218;6.548;2022-11-27T10:38:05;8.80;;;4.07;;
51901;SDS011;37929;53.218;6.548;2022-11-27T10:40:51;12.02;;;4.68;;
51901;SDS011;37929;53.218;6.548;2022-11-27T10:43:26;11.52;;;4.75;;
51901;SDS011;37929;53.218;6.548;2022-11-27T10:45:56;9.07;;;4.05;;
51901;SDS011;37929;53.218;6.548;2022-11-27T10:48:26;8.50;;;4.63;;
51901;SDS011;37929;53.218;6.548;2022-11-27T10:50:54;10.30;;;4.70;;
51901;SDS011;37929;53.218;6.548;2022-11-27T10:53:33;7.00;;;4.40;;
51901;SDS011;37929;53.218;6.548;2022-11-27T10:58:53;9.20;;;4.00;;
51901;SDS011;37929;53.218;6.548;2022-11-27T11:01:28;12.10;;;4.72;;
51901;SDS011;37929;53.218;6.548;2022-11-27T11:04:05;10.07;;;4.75;;
51901;SDS011;37929;53.218;6.548;2022-11-27T11:06:32;13.43;;;4.00;;
51901;SDS011;37929;53.218;6.548;2022-11-27T11:09:21;8.30;;;4.38;;
51901;SDS011;37929;53.218;6.548;2022-11-27T11:12:07;12.15;;;4.57;;
51901;SDS011;37929;53.218;6.548;2022-11-27T11:14:51;8.82;;;4.00;;
51901;SDS011;37929;53.218;6.548;2022-11-27T11:17:40;12.07;;;4.65;;
51901;SDS011;37929;53.218;6.548;2022-11-27T11:20:21;9.43;;;4.25;;
51901;SDS011;37929;53.218;6.548;2022-11-27T11:22:48;9.90;;;4.25;;
51901;SDS011;37929;53.218;6.548;2022-11-27T11:25:18;9.05;;;4.40;;
51901;SDS011;37929;53.218;6.548;2022-11-27T11:27:45;10.13;;;5.05;;
51901;SDS011;37929;53.218;6.548;2022-11-27T11:30:20;8.73;;;4.57;;
51901;SDS011;37929;53.218;6.548;2022-11-27T11:32:48;9.57;;;4.43;;
51901;SDS011;37929;53.218;6.548;2022-11-27T11:37:50;9.38;;;4.65;;
51901;SDS011;37929;53.218;6.548;2022-11-27T11:40:28;9.48;;;4.45;;
51901;SDS011;37929;53.218;6.548;2022-11-27T11:42:57;12.35;;;4.35;;
51901;SDS011;37929;53.218;6.548;2022-11-27T11:45:29;11.43;;;4.68;;
51901;SDS011;37929;53.218;6.548;2022-11-27T11:47:57;8.75;;;4.10;;
51901;SDS011;37929;53.218;6.548;2022-11-27T11:51:10;9.02;;;4.03;;
51901;SDS011;37929;53.218;6.548;2022-11-27T11:53:36;11.02;;;5.28;;
51901;SDS011;37929;53.218;6.548;2022-11-27T11:56:27;8.25;;;3.92;;
51901;SDS011;37929;53.218;6.548;2022-11-27T12:15:05;8.02;;;4.10;;
51901;SDS011;37929;53.218;6.548;2022-11-27T12:20:28;10.45;;;4.38;;
51901;SDS011;37929;53.218;6.548;2022-11-27T12:26:25;8.13;;;4.53;;
51901;SDS011;37929;53.218;6.548;2022-11-27T12:32:03;8.98;;;4.20;;
51901;SDS011;37929;53.218;6.548;2022-11-27T12:43:22;10.55;;;4.28;;
51901;SDS011;37929;53.218;6.548;2022-11-27T12:48:21;8.48;;;4.68;;
51901;SDS011;37929;53.218;6.548;2022-11-27T12:50:57;9.07;;;4.53;;
51901;SDS011;37929;53.218;6.548;2022-11-27T12:53:58;8.35;;;4.97;;
51901;SDS011;37929;53.218;6.548;2022-11-27T13:01:46;12.23;;;5.20;;
51901;SDS011;37929;53.218;6.548;2022-11-27T13:04:25;9.65;;;4.63;;
51901;SDS011;37929;53.218;6.548;2022-11-27T13:07:23;8.68;;;4.47;;
51901;SDS011;37929;53.218;6.548;2022-11-27T13:13:43;7.88;;;4.70;;
51901;SDS011;37929;53.218;6.548;2022-11-27T13:15:47;8.23;;;4.47;;
51901;SDS011;37929;53.218;6.548;2022-11-27T13:20:50;11.05;;;4.65;;
51901;SDS011;37929;53.218;6.548;2022-11-27T13:23:17;7.72;;;4.40;;
51901;SDS011;37929;53.218;6.548;2022-11-27T13:25:51;8.60;;;4.72;;
51901;SDS011;37929;53.218;6.548;2022-11-27T13:31:00;8.45;;;4.22;;
51901;SDS011;37929;53.218;6.548;2022-11-27T13:33:33;8.45;;;4.45;;
51901;SDS011;37929;53.218;6.548;2022-11-27T13:36:05;8.13;;;4.38;;
51901;SDS011;37929;53.218;6.548;2022-11-27T13:38:41;9.40;;;4.47;;
51901;SDS011;37929;53.218;6.548;2022-11-27T13:41:09;9.15;;;4.80;;
51901;SDS011;37929;53.218;6.548;2022-11-27T13:43:45;8.35;;;4.35;;
51901;SDS011;37929;53.218;6.548;2022-11-27T13:48:47;8.02;;;4.57;;
51901;SDS011;37929;53.218;6.548;2022-11-27T13:51:27;7.90;;;4.75;;
51901;SDS011;37929;53.218;6.548;2022-11-27T13:56:50;9.82;;;4.90;;
51901;SDS011;37929;53.218;6.548;2022-11-27T13:59:20;8.77;;;4.15;;
51901;SDS011;37929;53.218;6.548;2022-11-27T14:01:55;7.72;;;4.53;;
51901;SDS011;37929;53.218;6.548;2022-11-27T14:04:22;9.70;;;4.43;;
51901;SDS011;37929;53.218;6.548;2022-11-27T14:07:09;11.20;;;4.55;;
51901;SDS011;37929;53.218;6.548;2022-11-27T14:09:48;10.48;;;4.60;;
51901;SDS011;37929;53.218;6.548;2022-11-27T14:12:27;11.20;;;4.47;;
51901;SDS011;37929;53.218;6.548;2022-11-27T14:14:57;8.45;;;4.55;;
51901;SDS011;37929;53.218;6.548;2022-11-27T14:17:42;8.50;;;4.53;;
51901;SDS011;37929;53.218;6.548;2022-11-27T14:25:18;12.77;;;7.35;;
51901;SDS011;37929;53.218;6.548;2022-11-27T14:28:01;15.98;;;9.30;;
51901;SDS011;37929;53.218;6.548;2022-11-27T14:33:19;10.07;;;5.25;;
51901;SDS011;37929;53.218;6.548;2022-11-27T14:35:51;9.52;;;5.43;;
51901;SDS011;37929;53.218;6.548;2022-11-27T14:38:19;9.80;;;4.68;;
51901;SDS011;37929;53.218;6.548;2022-11-27T14:40:45;12.05;;;5.18;;
51901;SDS011;37929;53.218;6.548;2022-11-27T14:43:13;10.05;;;5.47;;
51901;SDS011;37929;53.218;6.548;2022-11-27T14:45:43;10.50;;;4.80;;
51901;SDS011;37929;53.218;6.548;2022-11-27T14:48:12;9.48;;;4.63;;
51901;SDS011;37929;53.218;6.548;2022-11-27T14:50:43;12.60;;;6.63;;
51901;SDS011;37929;53.218;6.548;2022-11-27T14:53:09;11.02;;;5.30;;
51901;SDS011;37929;53.218;6.548;2022-11-27T14:55:35;9.18;;;5.32;;
51901;SDS011;37929;53.218;6.548;2022-11-27T14:58:01;12.05;;;6.15;;
51901;SDS011;37929;53.218;6.548;2022-11-27T15:00:27;8.82;;;5.50;;
51901;SDS011;37929;53.218;6.548;2022-11-27T15:03:05;9.73;;;4.72;;
51901;SDS011;37929;53.218;6.548;2022-11-27T15:05:35;8.45;;;4.07;;
51901;SDS011;37929;53.218;6.548;2022-11-27T15:08:02;9.68;;;5.05;;
51901;SDS011;37929;53.218;6.548;2022-11-27T15:13:01;13.27;;;6.20;;
51901;SDS011;37929;53.218;6.548;2022-11-27T15:15:29;9.40;;;5.00;;
51901;SDS011;37929;53.218;6.548;2022-11-27T15:18:01;10.18;;;4.55;;
51901;SDS011;37929;53.218;6.548;2022-11-27T15:20:37;7.78;;;4.47;;
51901;SDS011;37929;53.218;6.548;2022-11-27T15:30:59;10.23;;;5.25;;
51901;SDS011;37929;53.218;6.548;2022-11-27T15:33:30;11.30;;;5.60;;
51901;SDS011;37929;53.218;6.548;2022-11-27T15:38:40;10.57;;;5.57;;
51901;SDS011;37929;53.218;6.548;2022-11-27T15:41:17;9.85;;;4.57;;
51901;SDS011;37929;53.218;6.548;2022-11-27T15:43:51;9.45;;;5.63;;
51901;SDS011;37929;53.218;6.548;2022-11-27T15:46:21;14.77;;;6.68;;
51901;SDS011;37929;53.218;6.548;2022-11-27T15:48:50;9.80;;;5.80;;
51901;SDS011;37929;53.218;6.548;2022-11-27T15:51:16;10.35;;;4.93;;
51901;SDS011;37929;53.218;6.548;2022-11-27T15:53:42;12.65;;;6.88;;
51901;SDS011;37929;53.218;6.548;2022-11-27T15:56:07;12.93;;;6.43;;
51901;SDS011;37929;53.218;6.548;2022-11-27T15:58:33;10.43;;;6.35;;
51901;SDS011;37929;53.218;6.548;2022-11-27T16:00:59;17.20;;;8.73;;
51901;SDS011;37929;53.218;6.548;2022-11-27T16:03:24;15.57;;;7.70;;
51901;SDS011;37929;53.218;6.548;2022-11-27T16:05:50;14.63;;;7.50;;
51901;SDS011;37929;53.218;6.548;2022-11-27T16:08:16;14.98;;;6.68;;
51901;SDS011;37929;53.218;6.548;2022-11-27T16:10:41;10.68;;;5.22;;
51901;SDS011;37929;53.218;6.548;2022-11-27T16:13:07;10.95;;;5.50;;
51901;SDS011;37929;53.218;6.548;2022-11-27T16:15:33;10.70;;;5.63;;
51901;SDS011;37929;53.218;6.548;2022-11-27T16:17:59;10.55;;;4.90;;
51901;SDS011;37929;53.218;6.548;2022-11-27T16:20:25;9.80;;;5.35;;
51901;SDS011;37929;53.218;6.548;2022-11-27T16:22:51;10.18;;;5.10;;
51901;SDS011;37929;53.218;6.548;2022-11-27T16:25:17;10.63;;;5.65;;
51901;SDS011;37929;53.218;6.548;2022-11-27T16:27:43;14.73;;;6.93;;
51901;SDS011;37929;53.218;6.548;2022-11-27T16:30:09;12.13;;;7.35;;
51901;SDS011;37929;53.218;6.548;2022-11-27T16:32:39;13.25;;;6.88;;
51901;SDS011;37929;53.218;6.548;2022-11-27T16:35:05;10.30;;;5.88;;
51901;SDS011;37929;53.218;6.548;2022-11-27T16:37:32;10.95;;;5.88;;
51901;SDS011;37929;53.218;6.548;2022-11-27T16:39:57;11.52;;;5.68;;
51901;SDS011;37929;53.218;6.548;2022-11-27T16:42:23;12.60;;;7.10;;
51901;SDS011;37929;53.218;6.548;2022-11-27T16:44:49;11.63;;;5.35;;
51901;SDS011;37929;53.218;6.548;2022-11-27T16:47:15;11.02;;;5.72;;
51901;SDS011;37929;53.218;6.548;2022-11-27T16:49:41;10.93;;;5.90;;
51901;SDS011;37929;53.218;6.548;2022-11-27T16:52:06;14.48;;;5.53;;
51901;SDS011;37929;53.218;6.548;2022-11-27T16:54:34;10.10;;;5.40;;
51901;SDS011;37929;53.218;6.548;2022-11-27T16:57:00;10.55;;;6.03;;
51901;SDS011;37929;53.218;6.548;2022-11-27T16:59:26;10.90;;;5.45;;
51901;SDS011;37929;53.218;6.548;2022-11-27T17:01:52;11.77;;;5.18;;
51901;SDS011;37929;53.218;6.548;2022-11-27T17:04:18;11.60;;;5.93;;